createdAt,value
2019-05-23T00:00:53.165Z,13.80
2019-05-23T00:01:53.142Z,14.40
2019-05-23T00:02:53.144Z,14.20
2019-05-23T00:03:53.123Z,14.10
2019-05-23T00:04:53.126Z,15.10
2019-05-23T00:05:53.122Z,14.40
2019-05-23T00:06:53.095Z,14.60
2019-05-23T00:07:53.105Z,14.70
2019-05-23T00:08:53.084Z,15.30
2019-05-23T00:09:53.076Z,14.80
2019-05-23T00:10:53.047Z,14.40
2019-05-23T00:11:53.053Z,14.90
2019-05-23T00:12:53.076Z,15.40
2019-05-23T00:13:53.023Z,14.80
2019-05-23T00:14:53.016Z,14.50
2019-05-23T00:15:53.010Z,14.40
2019-05-23T00:16:53.006Z,14.70
2019-05-23T00:17:52.983Z,15.00
2019-05-23T00:18:52.968Z,14.90
2019-05-23T00:19:52.954Z,15.00
2019-05-23T00:20:52.956Z,14.90
2019-05-23T00:21:52.935Z,14.50
2019-05-23T00:22:52.952Z,14.50
2019-05-23T00:23:52.903Z,15.10
2019-05-23T00:24:52.901Z,15.10
2019-05-23T00:25:52.883Z,14.70
2019-05-23T00:26:52.890Z,15.40
2019-05-23T00:27:52.875Z,15.50
2019-05-23T00:29:08.770Z,15.80
2019-05-23T00:29:53.866Z,15.40
2019-05-23T00:30:52.844Z,15.80
2019-05-23T00:31:52.831Z,15.80
2019-05-23T00:32:52.813Z,15.50
2019-05-23T00:33:52.822Z,15.40
2019-05-23T00:34:52.791Z,16.90
2019-05-23T00:35:52.780Z,15.40
2019-05-23T00:36:52.778Z,15.30
2019-05-23T00:37:52.775Z,15.50
2019-05-23T00:38:52.773Z,15.60
2019-05-23T00:39:52.751Z,16.10
2019-05-23T00:40:52.731Z,15.50
2019-05-23T00:41:52.753Z,16.40
2019-05-23T00:42:52.711Z,16.90
2019-05-23T00:43:52.701Z,16.50
2019-05-23T00:44:52.716Z,17.10
2019-05-23T00:45:52.713Z,16.30
2019-05-23T00:46:52.671Z,16.90
2019-05-23T00:47:52.657Z,16.60
2019-05-23T00:48:52.671Z,16.60
2019-05-23T00:49:52.644Z,17.40
2019-05-23T00:50:52.631Z,17.00
2019-05-23T00:51:52.615Z,16.30
2019-05-23T00:52:52.600Z,16.80
2019-05-23T00:53:52.605Z,16.40
2019-05-23T00:54:52.600Z,16.60
2019-05-23T00:55:52.587Z,16.70
2019-05-23T00:56:52.570Z,16.50
2019-05-23T00:57:52.551Z,16.50
2019-05-23T00:58:52.577Z,16.80
2019-05-23T00:59:52.540Z,16.80
2019-05-23T01:00:52.521Z,16.50
2019-05-23T01:01:52.539Z,17.40
2019-05-23T01:02:52.490Z,15.70
2019-05-23T01:03:52.499Z,16.20
2019-05-23T01:04:52.480Z,15.70
2019-05-23T01:05:52.465Z,16.30
2019-05-23T01:06:52.442Z,16.20
2019-05-23T01:07:52.448Z,16.20
2019-05-23T01:08:52.449Z,15.60
2019-05-23T01:09:52.431Z,15.30
2019-05-23T01:10:52.422Z,15.30
2019-05-23T01:11:52.391Z,15.70
2019-05-23T01:12:52.389Z,15.20
2019-05-23T01:13:52.385Z,15.70
2019-05-23T01:14:52.404Z,15.70
2019-05-23T01:15:52.350Z,16.10
2019-05-23T01:16:52.340Z,15.90
2019-05-23T01:17:52.361Z,16.30
2019-05-23T01:18:52.363Z,15.30
2019-05-23T01:19:52.308Z,16.00
2019-05-23T01:20:52.314Z,15.80
2019-05-23T01:21:52.353Z,15.80
2019-05-23T01:22:52.292Z,16.00
2019-05-23T01:23:52.277Z,15.50
2019-05-23T01:24:52.273Z,15.20
2019-05-23T01:25:52.243Z,15.20
2019-05-23T01:26:52.249Z,15.50
2019-05-23T01:27:52.287Z,15.60
2019-05-23T01:28:52.217Z,15.80
2019-05-23T01:29:52.243Z,15.50
2019-05-23T01:30:52.202Z,15.40
2019-05-23T01:31:52.201Z,14.70
2019-05-23T01:32:52.183Z,15.30
2019-05-23T01:33:52.172Z,14.60
2019-05-23T01:34:52.199Z,15.40
2019-05-23T01:35:52.172Z,15.20
2019-05-23T01:36:52.121Z,15.10
2019-05-23T01:37:52.297Z,15.40
2019-05-23T01:38:52.110Z,15.20
2019-05-23T01:39:52.103Z,15.40
2019-05-23T01:40:52.101Z,14.30
2019-05-23T01:41:52.097Z,14.90
2019-05-23T01:42:52.066Z,15.30
2019-05-23T01:43:52.097Z,14.80
2019-05-23T01:44:52.038Z,14.00
2019-05-23T01:45:52.038Z,15.30
2019-05-23T01:46:52.040Z,15.40
2019-05-23T01:47:52.009Z,15.30
2019-05-23T01:48:52.048Z,15.30
2019-05-23T01:49:51.990Z,14.70
2019-05-23T01:50:52.050Z,14.20
2019-05-23T01:51:51.975Z,14.40
2019-05-23T01:52:51.959Z,14.20
2019-05-23T01:53:51.988Z,14.10
2019-05-23T01:54:51.948Z,14.80
2019-05-23T01:55:51.918Z,15.20
2019-05-23T01:56:51.909Z,13.80
2019-05-23T01:57:51.912Z,14.40
2019-05-23T01:58:51.968Z,14.80
2019-05-23T02:00:08.244Z,15.30
2019-05-23T02:00:52.881Z,14.40
2019-05-23T02:01:51.877Z,14.00
2019-05-23T02:02:51.862Z,14.50
2019-05-23T02:03:51.840Z,14.00
2019-05-23T02:04:51.862Z,13.90
2019-05-23T02:05:51.828Z,14.50
2019-05-23T02:06:51.801Z,14.40
2019-05-23T02:07:51.820Z,14.60
2019-05-23T02:08:51.779Z,14.00
2019-05-23T02:09:51.775Z,14.10
2019-05-23T02:10:51.805Z,14.50
2019-05-23T02:11:51.794Z,15.20
2019-05-23T02:12:51.737Z,14.20
2019-05-23T02:13:51.787Z,14.70
2019-05-23T02:14:51.735Z,14.00
2019-05-23T02:15:51.744Z,14.30
2019-05-23T02:16:51.689Z,13.90
2019-05-23T02:17:51.713Z,13.80
2019-05-23T02:18:51.679Z,14.00
2019-05-23T02:19:51.658Z,14.10
2019-05-23T02:20:51.657Z,14.20
2019-05-23T02:21:51.642Z,14.00
2019-05-23T02:22:51.632Z,14.50
2019-05-23T02:23:51.618Z,14.10
2019-05-23T02:24:51.618Z,14.30
2019-05-23T02:25:51.628Z,13.70
2019-05-23T02:26:51.608Z,13.60
2019-05-23T02:27:51.571Z,13.60
2019-05-23T02:28:51.569Z,14.50
2019-05-23T02:29:51.564Z,13.80
2019-05-23T02:30:51.550Z,14.60
2019-05-23T02:31:51.519Z,14.40
2019-05-23T02:32:51.521Z,13.90
2019-05-23T02:33:51.520Z,13.80
2019-05-23T02:34:51.513Z,13.70
2019-05-23T02:35:51.558Z,14.40
2019-05-23T02:36:51.478Z,14.10
2019-05-23T02:37:51.457Z,13.70
2019-05-23T02:38:51.553Z,14.40
2019-05-23T02:39:51.448Z,14.50
2019-05-23T02:40:51.442Z,13.60
2019-05-23T02:41:51.474Z,14.50
2019-05-23T02:42:51.427Z,13.90
2019-05-23T02:43:51.459Z,13.90
2019-05-23T02:44:51.397Z,14.30
2019-05-23T02:45:51.410Z,14.50
2019-05-23T02:46:51.397Z,14.00
2019-05-23T02:47:51.381Z,13.50
2019-05-23T02:48:51.353Z,13.80
2019-05-23T02:49:51.355Z,14.90
2019-05-23T02:50:51.341Z,14.20
2019-05-23T02:51:51.357Z,14.20
2019-05-23T02:52:51.298Z,13.70
2019-05-23T02:53:51.294Z,14.20
2019-05-23T02:54:51.277Z,14.20
2019-05-23T02:55:51.298Z,14.20
2019-05-23T02:56:51.281Z,14.30
2019-05-23T02:57:51.239Z,14.00
2019-05-23T02:58:51.239Z,14.30
2019-05-23T02:59:51.221Z,14.20
2019-05-23T03:00:54.838Z,14.70
2019-05-23T03:01:51.228Z,14.70
2019-05-23T03:02:51.187Z,13.80
2019-05-23T03:03:51.188Z,14.30
2019-05-23T03:04:51.222Z,14.90
2019-05-23T03:05:51.173Z,14.70
2019-05-23T03:06:51.159Z,14.40
2019-05-23T03:07:51.148Z,14.50
2019-05-23T03:08:51.126Z,15.20
2019-05-23T03:09:51.118Z,15.20
2019-05-23T03:10:51.106Z,14.30
2019-05-23T03:11:51.086Z,14.70
2019-05-23T03:12:51.116Z,14.80
2019-05-23T03:13:51.075Z,14.90
2019-05-23T03:14:51.086Z,14.70
2019-05-23T03:15:51.045Z,14.70
2019-05-23T03:16:51.072Z,14.90
2019-05-23T03:17:51.027Z,15.60
2019-05-23T03:18:51.026Z,14.50
2019-05-23T03:19:51.008Z,15.90
2019-05-23T03:20:51.005Z,14.70
2019-05-23T03:21:51.023Z,15.20
2019-05-23T03:22:50.988Z,14.60
2019-05-23T03:23:50.968Z,14.90
2019-05-23T03:24:50.964Z,14.90
2019-05-23T03:25:50.946Z,14.30
2019-05-23T03:26:50.990Z,15.80
2019-05-23T03:27:50.925Z,14.80
2019-05-23T03:28:50.924Z,14.70
2019-05-23T03:29:50.925Z,15.10
2019-05-23T03:30:50.895Z,15.10
2019-05-23T03:31:50.898Z,15.30
2019-05-23T03:32:50.894Z,15.60
2019-05-23T03:33:50.887Z,15.80
2019-05-23T03:34:50.852Z,15.10
2019-05-23T03:35:50.854Z,15.50
2019-05-23T03:36:50.822Z,15.10
2019-05-23T03:37:50.803Z,15.10
2019-05-23T03:38:50.825Z,14.40
2019-05-23T03:39:50.854Z,15.20
2019-05-23T03:40:50.812Z,14.80
2019-05-23T03:41:50.777Z,15.40
2019-05-23T03:42:50.765Z,15.00
2019-05-23T03:43:50.759Z,14.80
2019-05-23T03:44:50.756Z,15.70
2019-05-23T03:45:50.727Z,15.80
2019-05-23T03:46:50.761Z,15.70
2019-05-23T03:47:50.736Z,15.20
2019-05-23T03:48:50.715Z,15.80
2019-05-23T03:49:50.685Z,15.10
2019-05-23T03:50:50.714Z,15.60
2019-05-23T03:51:50.676Z,15.30
2019-05-23T03:52:50.683Z,16.50
2019-05-23T03:53:50.741Z,15.40
2019-05-23T03:54:50.641Z,15.40
2019-05-23T03:55:50.614Z,14.80
2019-05-23T03:56:50.615Z,15.60
2019-05-23T03:57:50.633Z,14.80
2019-05-23T03:58:50.633Z,15.00
2019-05-23T03:59:50.633Z,15.90
2019-05-23T04:00:50.583Z,15.30
2019-05-23T04:01:50.594Z,15.20
2019-05-23T04:02:50.580Z,15.40
2019-05-23T04:03:50.532Z,16.20
2019-05-23T04:04:50.540Z,15.50
2019-05-23T04:05:50.562Z,15.70
2019-05-23T04:06:50.504Z,15.50
2019-05-23T04:07:50.513Z,14.80
2019-05-23T04:08:50.490Z,15.70
2019-05-23T04:09:50.522Z,15.30
2019-05-23T04:10:51.863Z,15.40
2019-05-23T04:11:50.477Z,15.10
2019-05-23T04:12:50.443Z,14.90
2019-05-23T04:13:50.552Z,15.50
2019-05-23T04:14:50.434Z,15.30
2019-05-23T04:15:50.418Z,14.90
2019-05-23T04:16:50.418Z,16.00
2019-05-23T04:17:50.414Z,15.30
2019-05-23T04:18:50.363Z,15.90
2019-05-23T04:19:50.353Z,15.40
2019-05-23T04:20:50.345Z,15.60
2019-05-23T04:21:50.397Z,15.30
2019-05-23T04:22:50.325Z,15.50
2019-05-23T04:23:50.313Z,16.00
2019-05-23T04:24:50.303Z,15.10
2019-05-23T04:25:50.361Z,15.20
2019-05-23T04:26:50.287Z,15.10
2019-05-23T04:27:50.262Z,16.00
2019-05-23T04:28:50.278Z,15.00
2019-05-23T04:29:50.245Z,15.80
2019-05-23T04:30:51.082Z,15.50
2019-05-23T04:32:06.128Z,15.30
2019-05-23T04:32:51.223Z,15.50
2019-05-23T04:33:50.206Z,15.70
2019-05-23T04:34:50.180Z,15.00
2019-05-23T04:35:50.192Z,15.60
2019-05-23T04:36:50.172Z,15.10
2019-05-23T04:37:50.154Z,16.00
2019-05-23T04:38:50.155Z,15.30
2019-05-23T04:39:50.131Z,15.20
2019-05-23T04:40:50.152Z,15.20
2019-05-23T04:41:50.123Z,15.00
2019-05-23T04:42:50.102Z,14.30
2019-05-23T04:43:50.091Z,14.50
2019-05-23T04:44:50.105Z,14.90
2019-05-23T04:45:50.102Z,14.60
2019-05-23T04:46:50.173Z,14.90
2019-05-23T04:47:50.097Z,15.30
2019-05-23T04:48:50.051Z,14.70
2019-05-23T04:49:50.021Z,15.00
2019-05-23T04:50:50.031Z,14.40
2019-05-23T04:51:50.025Z,14.70
2019-05-23T04:52:50.019Z,15.00
2019-05-23T04:53:50.020Z,14.00
2019-05-23T04:54:49.987Z,15.10
2019-05-23T04:55:49.980Z,14.40
2019-05-23T04:56:49.941Z,14.30
2019-05-23T04:57:49.970Z,14.40
2019-05-23T04:58:49.955Z,14.50
2019-05-23T04:59:49.932Z,14.70
2019-05-23T05:00:49.899Z,14.80
2019-05-23T05:01:49.941Z,14.60
2019-05-23T05:02:49.949Z,15.40
2019-05-23T05:03:49.882Z,14.80
2019-05-23T05:04:49.920Z,14.90
2019-05-23T05:05:49.886Z,14.80
2019-05-23T05:06:49.849Z,14.80
2019-05-23T05:07:49.844Z,15.00
2019-05-23T05:08:49.837Z,15.40
2019-05-23T05:09:49.820Z,15.10
2019-05-23T05:10:49.798Z,15.60
2019-05-23T05:11:49.792Z,15.80
2019-05-23T05:12:49.788Z,15.20
2019-05-23T05:13:49.772Z,15.70
2019-05-23T05:14:49.766Z,15.50
2019-05-23T05:15:49.780Z,14.50
2019-05-23T05:16:49.747Z,14.90
2019-05-23T05:17:49.736Z,14.80
2019-05-23T05:18:49.735Z,16.00
2019-05-23T05:19:49.725Z,14.60
2019-05-23T05:20:49.708Z,15.60
2019-05-23T05:21:49.727Z,16.10
2019-05-23T05:22:49.699Z,15.60
2019-05-23T05:23:49.677Z,15.80
2019-05-23T05:24:49.648Z,15.60
2019-05-23T05:25:49.673Z,16.00
2019-05-23T05:26:49.635Z,17.80
2019-05-23T05:27:49.637Z,16.00
2019-05-23T05:28:49.625Z,15.90
2019-05-23T05:29:49.624Z,16.20
2019-05-23T05:30:49.587Z,16.50
2019-05-23T05:31:49.583Z,16.80
2019-05-23T05:32:49.583Z,16.70
2019-05-23T05:33:49.546Z,16.10
2019-05-23T05:34:49.592Z,16.40
2019-05-23T05:35:49.541Z,16.50
2019-05-23T05:36:49.567Z,16.90
2019-05-23T05:37:49.717Z,16.90
2019-05-23T05:38:49.497Z,17.40
2019-05-23T05:39:49.484Z,17.00
2019-05-23T05:40:49.522Z,17.40
2019-05-23T05:41:49.466Z,16.60
2019-05-23T05:42:49.456Z,17.70
2019-05-23T05:43:49.471Z,17.90
2019-05-23T05:44:49.446Z,16.90
2019-05-23T05:45:49.437Z,17.30
2019-05-23T05:46:49.468Z,17.70
2019-05-23T05:47:49.438Z,18.70
2019-05-23T05:48:49.407Z,18.40
2019-05-23T05:49:49.420Z,19.20
2019-05-23T05:50:49.367Z,19.80
2019-05-23T05:51:49.367Z,19.60
2019-05-23T05:52:49.353Z,20.10
2019-05-23T05:53:49.447Z,20.10
2019-05-23T05:54:49.335Z,20.10
2019-05-23T05:55:49.314Z,20.00
2019-05-23T05:56:49.322Z,20.50
2019-05-23T05:57:49.309Z,20.10
2019-05-23T05:58:49.297Z,20.30
2019-05-23T05:59:49.286Z,20.10
2019-05-23T06:00:49.296Z,20.40
2019-05-23T06:01:49.245Z,19.30
2019-05-23T06:03:03.467Z,21.30
2019-05-23T06:03:50.237Z,20.00
2019-05-23T06:04:49.233Z,20.70
2019-05-23T06:05:49.223Z,20.20
2019-05-23T06:06:50.207Z,20.20
2019-05-23T06:07:49.184Z,19.80
2019-05-23T06:08:49.218Z,20.00
2019-05-23T06:09:49.196Z,20.50
2019-05-23T06:10:49.189Z,19.60
2019-05-23T06:11:49.142Z,20.10
2019-05-23T06:12:49.134Z,19.60
2019-05-23T06:13:49.174Z,20.00
2019-05-23T06:14:49.129Z,20.50
2019-05-23T06:15:49.158Z,20.50
2019-05-23T06:16:49.098Z,20.00
2019-05-23T06:17:49.075Z,19.60
2019-05-23T06:18:49.094Z,20.60
2019-05-23T06:19:49.057Z,20.70
2019-05-23T06:20:49.106Z,20.00
2019-05-23T06:21:49.052Z,20.30
2019-05-23T06:22:49.016Z,20.70
2019-05-23T06:23:49.013Z,21.40
2019-05-23T06:24:53.688Z,20.50
2019-05-23T06:25:50.003Z,20.50
2019-05-23T06:26:48.984Z,20.90
2019-05-23T06:27:48.975Z,21.30
2019-05-23T06:28:49.010Z,21.10
2019-05-23T06:29:48.954Z,20.80
2019-05-23T06:30:48.948Z,20.90
2019-05-23T06:31:48.940Z,20.40
2019-05-23T06:32:49.003Z,20.90
2019-05-23T06:33:48.905Z,20.90
2019-05-23T06:34:48.945Z,20.60
2019-05-23T06:35:48.873Z,20.10
2019-05-23T06:36:48.885Z,21.10
2019-05-23T06:37:48.864Z,21.20
2019-05-23T06:38:48.843Z,20.90
2019-05-23T06:39:48.907Z,21.60
2019-05-23T06:40:48.823Z,20.30
2019-05-23T06:41:48.812Z,20.70
2019-05-23T06:42:50.956Z,21.80
2019-05-23T06:43:48.791Z,21.50
2019-05-23T06:44:48.783Z,20.90
2019-05-23T06:45:48.762Z,21.10
2019-05-23T06:46:48.781Z,22.10
2019-05-23T06:47:48.763Z,20.90
2019-05-23T06:48:48.743Z,21.30
2019-05-23T06:49:48.749Z,21.80
2019-05-23T06:50:48.725Z,21.90
2019-05-23T06:51:48.714Z,21.60
2019-05-23T06:52:48.720Z,21.10
2019-05-23T06:53:48.693Z,21.80
2019-05-23T06:54:48.709Z,21.90
2019-05-23T06:55:48.699Z,21.00
2019-05-23T06:56:48.710Z,20.50
2019-05-23T06:57:48.655Z,21.60
2019-05-23T06:58:48.639Z,21.90
2019-05-23T06:59:48.636Z,21.80
2019-05-23T07:00:48.794Z,21.70
2019-05-23T07:01:48.601Z,20.50
2019-05-23T07:02:48.610Z,21.00
2019-05-23T07:03:48.597Z,20.00
2019-05-23T07:04:48.581Z,21.40
2019-05-23T07:05:48.585Z,21.20
2019-05-23T07:06:48.565Z,20.90
2019-05-23T07:07:48.556Z,20.10
2019-05-23T07:08:48.523Z,20.40
2019-05-23T07:09:48.512Z,20.20
2019-05-23T07:10:48.512Z,20.90
2019-05-23T07:11:48.506Z,20.30
2019-05-23T07:12:48.544Z,21.00
2019-05-23T07:13:48.481Z,21.40
2019-05-23T07:14:48.456Z,20.60
2019-05-23T07:15:48.467Z,20.40
2019-05-23T07:16:50.395Z,19.10
2019-05-23T07:17:48.424Z,18.20
2019-05-23T07:18:48.485Z,18.60
2019-05-23T07:19:48.411Z,18.50
2019-05-23T07:20:48.427Z,19.90
2019-05-23T07:21:48.397Z,20.10
2019-05-23T07:22:48.372Z,19.50
2019-05-23T07:23:48.370Z,19.30
2019-05-23T07:24:58.126Z,19.30
2019-05-23T07:25:49.341Z,21.10
2019-05-23T07:26:48.366Z,20.60
2019-05-23T07:27:48.320Z,20.50
2019-05-23T07:28:48.302Z,18.70
2019-05-23T07:29:48.310Z,18.40
2019-05-23T07:30:48.307Z,17.90
2019-05-23T07:31:48.323Z,17.40
2019-05-23T07:32:48.268Z,17.90
2019-05-23T07:34:01.250Z,19.30
2019-05-23T07:34:49.279Z,17.00
2019-05-23T07:35:48.261Z,17.60
2019-05-23T07:36:48.270Z,18.50
2019-05-23T07:37:48.213Z,19.10
2019-05-23T07:38:48.200Z,18.00
2019-05-23T07:39:48.184Z,17.70
2019-05-23T07:40:48.203Z,16.70
2019-05-23T07:41:48.178Z,16.30
2019-05-23T07:42:48.210Z,16.10
2019-05-23T07:43:48.168Z,15.90
2019-05-23T07:44:48.727Z,15.80
2019-05-23T07:45:48.120Z,15.80
2019-05-23T07:46:48.131Z,16.00
2019-05-23T07:47:48.157Z,16.40
2019-05-23T07:48:48.105Z,15.90
2019-05-23T07:49:48.092Z,15.10
2019-05-23T07:50:48.090Z,15.80
2019-05-23T07:51:48.072Z,15.90
2019-05-23T07:52:48.080Z,15.90
2019-05-23T07:53:48.069Z,15.90
2019-05-23T07:54:48.042Z,16.30
2019-05-23T07:55:48.028Z,15.50
2019-05-23T07:56:48.007Z,15.40
2019-05-23T07:57:48.026Z,22.70
2019-05-23T07:58:48.005Z,15.90
2019-05-23T07:59:48.003Z,16.30
2019-05-23T08:00:48.018Z,15.80
2019-05-23T08:01:47.950Z,15.30
2019-05-23T08:02:47.949Z,15.30
2019-05-23T08:03:47.945Z,14.90
2019-05-23T08:04:47.910Z,15.20
2019-05-23T08:05:47.920Z,14.80
2019-05-23T08:06:48.940Z,15.60
2019-05-23T08:07:48.122Z,14.90
2019-05-23T08:08:47.923Z,15.10
2019-05-23T08:09:47.870Z,15.50
2019-05-23T08:10:47.859Z,15.20
2019-05-23T08:11:47.843Z,15.50
2019-05-23T08:12:47.838Z,15.70
2019-05-23T08:13:47.853Z,15.60
2019-05-23T08:14:47.805Z,15.60
2019-05-23T08:15:47.796Z,14.90
2019-05-23T08:16:47.804Z,16.00
2019-05-23T08:17:47.830Z,15.40
2019-05-23T08:18:47.773Z,15.40
2019-05-23T08:19:50.150Z,15.80
2019-05-23T08:20:47.740Z,14.90
2019-05-23T08:21:47.781Z,15.40
2019-05-23T08:22:47.740Z,15.40
2019-05-23T08:23:47.755Z,15.60
2019-05-23T08:24:51.077Z,15.50
2019-05-23T08:25:47.712Z,16.00
2019-05-23T08:26:47.719Z,15.10
2019-05-23T08:27:47.689Z,15.80
2019-05-23T08:29:21.786Z,15.60
2019-05-23T08:29:48.662Z,16.20
2019-05-23T08:30:47.631Z,16.40
2019-05-23T08:31:47.633Z,16.60
2019-05-23T08:32:47.660Z,16.30
2019-05-23T08:33:47.670Z,16.70
2019-05-23T08:34:47.599Z,17.60
2019-05-23T08:35:47.584Z,16.40
2019-05-23T08:36:47.590Z,17.20
2019-05-23T08:37:47.577Z,16.00
2019-05-23T08:38:47.580Z,16.90
2019-05-23T08:39:47.595Z,16.80
2019-05-23T08:40:47.553Z,17.10
2019-05-23T08:41:47.521Z,17.60
2019-05-23T08:42:47.782Z,17.40
2019-05-23T08:43:47.520Z,16.30
2019-05-23T08:44:47.494Z,15.20
2019-05-23T08:45:47.490Z,16.70
2019-05-23T08:46:47.520Z,15.50
2019-05-23T08:47:47.464Z,16.80
2019-05-23T08:48:47.461Z,16.50
2019-05-23T08:49:47.465Z,16.10
2019-05-23T08:50:51.220Z,15.20
2019-05-23T08:51:47.463Z,15.90
2019-05-23T08:52:47.413Z,16.10
2019-05-23T08:53:47.402Z,15.90
2019-05-23T08:54:47.390Z,16.00
2019-05-23T08:55:47.398Z,15.50
2019-05-23T08:56:47.361Z,15.20
2019-05-23T08:57:47.488Z,16.20
2019-05-23T08:58:47.345Z,16.10
2019-05-23T08:59:47.343Z,14.60
2019-05-23T09:00:47.336Z,14.70
2019-05-23T09:01:47.303Z,13.00
2019-05-23T09:02:47.311Z,13.50
2019-05-23T09:03:47.339Z,14.90
2019-05-23T09:05:03.664Z,14.60
2019-05-23T09:05:48.292Z,13.40
2019-05-23T09:06:47.252Z,12.90
2019-05-23T09:07:47.241Z,12.40
2019-05-23T09:08:47.235Z,13.40
2019-05-23T09:09:47.489Z,13.50
2019-05-23T09:10:47.215Z,13.60
2019-05-23T09:11:47.212Z,13.90
2019-05-23T09:12:47.249Z,13.80
2019-05-23T09:13:47.182Z,14.40
2019-05-23T09:14:47.270Z,12.70
2019-05-23T09:15:47.150Z,13.50
2019-05-23T09:16:47.149Z,13.10
2019-05-23T09:17:53.089Z,11.80
2019-05-23T09:18:48.261Z,11.90
2019-05-23T09:19:47.251Z,12.40
2019-05-23T09:20:47.115Z,11.70
2019-05-23T09:21:47.160Z,10.80
2019-05-23T09:22:47.109Z,8.20
2019-05-23T09:23:47.059Z,7.20
2019-05-23T09:24:47.070Z,7.90
2019-05-23T09:25:47.082Z,9.00
2019-05-23T09:26:47.067Z,9.50
2019-05-23T09:27:47.034Z,9.20
2019-05-23T09:28:47.013Z,8.20
2019-05-23T09:29:47.020Z,8.20
2019-05-23T09:30:47.010Z,7.60
2019-05-23T09:31:46.982Z,7.30
2019-05-23T09:32:46.980Z,7.90
2019-05-23T09:33:46.961Z,9.10
2019-05-23T09:34:46.952Z,8.60
2019-05-23T09:35:46.954Z,8.30
2019-05-23T09:36:46.920Z,10.00
2019-05-23T09:37:46.922Z,10.70
2019-05-23T09:38:46.916Z,9.80
2019-05-23T09:39:46.892Z,11.40
2019-05-23T09:40:46.910Z,10.00
2019-05-23T09:41:46.880Z,8.80
2019-05-23T09:42:46.883Z,9.20
2019-05-23T09:43:46.842Z,9.50
2019-05-23T09:44:46.866Z,8.60
2019-05-23T09:45:46.834Z,8.10
2019-05-23T09:46:46.830Z,7.80
2019-05-23T09:47:51.073Z,7.60
2019-05-23T09:48:46.808Z,6.60
2019-05-23T09:49:53.806Z,6.10
2019-05-23T09:50:47.788Z,7.10
2019-05-23T09:51:47.953Z,6.90
2019-05-23T09:52:46.759Z,7.90
2019-05-23T09:53:47.743Z,7.70
2019-05-23T09:54:46.738Z,6.50
2019-05-23T09:55:46.731Z,5.90
2019-05-23T09:56:46.724Z,6.10
2019-05-23T09:57:46.701Z,6.40
2019-05-23T09:58:46.695Z,6.00
2019-05-23T09:59:46.682Z,6.60
2019-05-23T10:00:46.679Z,6.80
2019-05-23T10:01:46.729Z,7.30
2019-05-23T10:02:46.650Z,6.90
2019-05-23T10:03:46.645Z,7.30
2019-05-23T10:04:46.640Z,7.50
2019-05-23T10:05:46.628Z,7.80
2019-05-23T10:06:46.626Z,6.90
2019-05-23T10:07:46.618Z,6.30
2019-05-23T10:08:46.596Z,6.30
2019-05-23T10:09:46.571Z,7.20
2019-05-23T10:10:46.581Z,8.10
2019-05-23T10:11:46.581Z,7.90
2019-05-23T10:12:46.553Z,8.60
2019-05-23T10:13:46.535Z,7.80
2019-05-23T10:14:46.521Z,7.40
2019-05-23T10:15:46.565Z,8.00
2019-05-23T10:16:46.524Z,8.20
2019-05-23T10:17:46.490Z,7.80
2019-05-23T10:18:46.470Z,7.90
2019-05-23T10:19:46.471Z,8.00
2019-05-23T10:20:46.486Z,7.90
2019-05-23T10:21:46.447Z,8.60
2019-05-23T10:22:46.442Z,8.40
2019-05-23T10:23:46.422Z,8.40
2019-05-23T10:24:46.412Z,8.30
2019-05-23T10:25:46.400Z,8.30
2019-05-23T10:26:46.381Z,8.40
2019-05-23T10:27:46.401Z,8.20
2019-05-23T10:28:46.361Z,9.20
2019-05-23T10:29:46.364Z,8.40
2019-05-23T10:30:46.343Z,8.40
2019-05-23T10:31:46.332Z,8.40
2019-05-23T10:32:46.341Z,8.70
2019-05-23T10:33:46.310Z,8.50
2019-05-23T10:34:46.408Z,8.00
2019-05-23T10:35:59.999Z,7.40
2019-05-23T10:36:47.281Z,7.10
2019-05-23T10:37:46.280Z,6.60
2019-05-23T10:38:46.269Z,6.90
2019-05-23T10:39:46.291Z,6.30
2019-05-23T10:40:46.258Z,6.40
2019-05-23T10:41:46.246Z,6.20
2019-05-23T10:42:46.211Z,5.80
2019-05-23T10:43:46.223Z,5.80
2019-05-23T10:44:46.198Z,5.40
2019-05-23T10:45:46.181Z,6.20
2019-05-23T10:46:46.188Z,5.80
2019-05-23T10:47:46.164Z,6.30
2019-05-23T10:48:46.174Z,6.00
2019-05-23T10:49:46.155Z,5.20
2019-05-23T10:50:46.184Z,5.30
2019-05-23T10:51:46.123Z,5.80
2019-05-23T10:52:46.170Z,5.80
2019-05-23T10:53:46.117Z,5.80
2019-05-23T10:54:46.092Z,5.30
2019-05-23T10:55:46.072Z,6.00
2019-05-23T10:56:46.089Z,6.60
2019-05-23T10:57:46.088Z,7.20
2019-05-23T10:58:46.059Z,6.10
2019-05-23T10:59:46.040Z,6.30
2019-05-23T11:00:46.023Z,6.10
2019-05-23T11:01:46.026Z,5.20
2019-05-23T11:02:46.146Z,5.70
2019-05-23T11:03:46.002Z,6.00
2019-05-23T11:04:45.982Z,6.70
2019-05-23T11:05:45.973Z,6.80
2019-05-23T11:06:45.975Z,6.10
2019-05-23T11:07:45.942Z,6.30
2019-05-23T11:08:45.935Z,5.80
2019-05-23T11:09:45.942Z,5.90
2019-05-23T11:10:45.913Z,5.80
2019-05-23T11:11:45.916Z,6.10
2019-05-23T11:12:45.891Z,5.60
2019-05-23T11:13:45.891Z,6.70
2019-05-23T11:14:45.884Z,7.30
2019-05-23T11:15:45.883Z,7.00
2019-05-23T11:16:45.861Z,6.80
2019-05-23T11:17:45.853Z,7.10
2019-05-23T11:18:45.833Z,7.40
2019-05-23T11:19:45.842Z,6.60
2019-05-23T11:20:45.813Z,6.40
2019-05-23T11:21:45.827Z,6.60
2019-05-23T11:22:45.792Z,6.70
2019-05-23T11:23:45.793Z,7.00
2019-05-23T11:24:45.794Z,6.60
2019-05-23T11:25:45.752Z,6.60
2019-05-23T11:26:45.741Z,6.70
2019-05-23T11:27:45.732Z,6.20
2019-05-23T11:28:45.746Z,6.40
2019-05-23T11:29:45.734Z,6.40
2019-05-23T11:30:45.713Z,5.80
2019-05-23T11:31:45.725Z,6.40
2019-05-23T11:32:45.745Z,6.30
2019-05-23T11:33:45.666Z,6.30
2019-05-23T11:34:45.663Z,6.50
2019-05-23T11:35:45.666Z,6.30
2019-05-23T11:36:45.643Z,6.70
2019-05-23T11:37:45.633Z,6.40
2019-05-23T11:38:45.614Z,6.50
2019-05-23T11:39:49.489Z,6.20
2019-05-23T11:40:46.616Z,6.50
2019-05-23T11:41:45.603Z,6.30
2019-05-23T11:42:45.572Z,6.70
2019-05-23T11:43:45.564Z,7.30
2019-05-23T11:44:45.566Z,7.30
2019-05-23T11:45:46.431Z,6.80
2019-05-23T11:46:45.533Z,7.40
2019-05-23T11:47:45.537Z,7.30
2019-05-23T11:48:45.513Z,6.50
2019-05-23T11:49:45.890Z,6.90
2019-05-23T11:50:45.493Z,6.70
2019-05-23T11:51:45.483Z,6.50
2019-05-23T11:52:45.469Z,6.90
2019-05-23T11:53:50.351Z,7.00
2019-05-23T11:54:46.455Z,6.70
2019-05-23T11:55:45.457Z,6.90
2019-05-23T11:56:45.446Z,7.20
2019-05-23T11:57:45.417Z,6.80
2019-05-23T11:58:45.434Z,6.90
2019-05-23T11:59:45.434Z,7.00
2019-05-23T12:00:45.401Z,7.60
2019-05-23T12:01:45.385Z,7.70
2019-05-23T12:02:45.374Z,7.20
2019-05-23T12:03:45.368Z,7.50
2019-05-23T12:04:45.348Z,7.30
2019-05-23T12:05:45.324Z,6.60
2019-05-23T12:06:55.469Z,6.60
2019-05-23T12:07:46.304Z,6.70
2019-05-23T12:08:45.307Z,6.70
2019-05-23T12:09:45.306Z,7.90
2019-05-23T12:10:45.283Z,7.00
2019-05-23T12:11:45.269Z,7.40
2019-05-23T12:12:45.294Z,7.20
2019-05-23T12:13:45.284Z,6.70
2019-05-23T12:14:45.224Z,6.50
2019-05-23T12:15:45.224Z,7.10
2019-05-23T12:16:45.223Z,7.10
2019-05-23T12:17:45.225Z,6.40
2019-05-23T12:18:45.184Z,6.10
2019-05-23T12:19:45.209Z,6.10
2019-05-23T12:20:45.171Z,6.10
2019-05-23T12:21:45.183Z,6.30
2019-05-23T12:22:45.247Z,6.70
2019-05-23T12:23:45.202Z,6.40
2019-05-23T12:24:45.139Z,6.70
2019-05-23T12:25:45.105Z,7.20
2019-05-23T12:26:45.125Z,10.50
2019-05-23T12:27:45.123Z,7.80
2019-05-23T12:28:45.095Z,7.10
2019-05-23T12:29:45.103Z,9.70
2019-05-23T12:30:45.064Z,7.20
2019-05-23T12:31:49.098Z,6.50
2019-05-23T12:32:45.523Z,7.00
2019-05-23T12:33:45.043Z,6.40
2019-05-23T12:35:07.963Z,6.90
2019-05-23T12:35:46.006Z,6.20
2019-05-23T12:36:45.036Z,6.60
2019-05-23T12:37:44.998Z,6.60
2019-05-23T12:38:45.007Z,7.90
2019-05-23T12:39:44.974Z,8.20
2019-05-23T12:40:44.955Z,7.60
2019-05-23T12:41:44.962Z,7.40
2019-05-23T12:42:44.953Z,8.10
2019-05-23T12:43:44.938Z,7.00
2019-05-23T12:44:44.905Z,8.50
2019-05-23T12:45:44.905Z,8.50
2019-05-23T12:46:44.901Z,7.40
2019-05-23T12:47:44.932Z,8.00
2019-05-23T12:48:44.892Z,7.10
2019-05-23T12:49:44.895Z,7.40
2019-05-23T12:50:44.855Z,7.70
2019-05-23T12:51:44.875Z,7.50
2019-05-23T12:52:44.877Z,8.20
2019-05-23T12:53:44.818Z,7.80
2019-05-23T12:54:44.834Z,7.80
2019-05-23T12:55:44.828Z,8.40
2019-05-23T12:56:48.531Z,7.80
2019-05-23T12:57:44.794Z,8.00
2019-05-23T12:58:44.762Z,8.60
2019-05-23T12:59:44.999Z,7.20